createdAt,value
2019-05-17T00:00:57.485Z,23.18
2019-05-17T00:03:27.445Z,22.33
2019-05-17T00:05:58.433Z,30.35
2019-05-17T00:08:34.411Z,34.13
2019-05-17T00:10:59.428Z,37.33
2019-05-17T00:13:29.961Z,142.33
2019-05-17T00:15:59.506Z,55.23
2019-05-17T00:18:28.899Z,34.73
2019-05-17T00:20:58.433Z,44.23
2019-05-17T00:23:28.083Z,35.50
2019-05-17T00:25:57.486Z,27.25
2019-05-17T00:28:27.265Z,31.75
2019-05-17T00:30:57.223Z,31.07
2019-05-17T00:33:28.135Z,24.93
2019-05-17T00:35:57.703Z,25.40
2019-05-17T00:38:27.549Z,27.15
2019-05-17T00:40:57.284Z,30.60
2019-05-17T00:43:26.850Z,28.85
2019-05-17T00:45:57.434Z,26.90
2019-05-17T00:48:27.190Z,33.20
2019-05-17T00:51:02.024Z,26.60
2019-05-17T00:53:27.951Z,26.75
2019-05-17T00:55:57.466Z,35.15
2019-05-17T00:58:27.040Z,27.35
2019-05-17T01:00:57.052Z,31.50
2019-05-17T01:03:27.053Z,27.07
2019-05-17T01:05:56.910Z,32.03
2019-05-17T01:08:26.662Z,29.65
2019-05-17T01:10:57.299Z,32.60
2019-05-17T01:13:27.187Z,30.35
2019-05-17T01:15:56.833Z,28.35
2019-05-17T01:18:26.933Z,32.87
2019-05-17T01:20:56.915Z,31.87
2019-05-17T01:23:27.688Z,28.27
2019-05-17T01:25:57.161Z,35.23
2019-05-17T01:28:27.052Z,28.47
2019-05-17T01:30:57.090Z,26.87
2019-05-17T01:33:27.383Z,30.95
2019-05-17T01:35:57.301Z,30.30
2019-05-17T01:38:27.095Z,31.60
2019-05-17T01:40:56.609Z,28.17
2019-05-17T01:43:27.331Z,35.68
2019-05-17T01:45:57.513Z,28.55
2019-05-17T01:48:27.220Z,30.45
2019-05-17T01:50:56.950Z,30.25
2019-05-17T01:53:27.147Z,28.50
2019-05-17T01:55:56.908Z,28.50
2019-05-17T01:58:26.986Z,30.02
2019-05-17T02:00:57.385Z,30.48
2019-05-17T02:03:27.088Z,31.33
2019-05-17T02:05:56.790Z,29.00
2019-05-17T02:08:26.544Z,26.25
2019-05-17T02:10:57.422Z,29.27
2019-05-17T02:13:27.169Z,27.22
2019-05-17T02:15:58.488Z,26.00
2019-05-17T02:18:27.903Z,25.57
2019-05-17T02:20:57.367Z,29.70
2019-05-17T02:23:27.177Z,38.42
2019-05-17T02:25:57.246Z,24.30
2019-05-17T02:28:26.894Z,28.00
2019-05-17T02:30:56.639Z,26.77
2019-05-17T02:33:26.671Z,26.80
2019-05-17T02:35:56.178Z,25.82
2019-05-17T02:38:25.669Z,24.00
2019-05-17T02:40:55.224Z,26.67
2019-05-17T02:43:24.708Z,25.80
2019-05-17T02:45:54.175Z,24.75
2019-05-17T02:48:23.735Z,26.45
2019-05-17T02:50:53.481Z,25.63
2019-05-17T02:53:24.084Z,23.02
2019-05-17T02:55:54.089Z,27.20
2019-05-17T02:58:24.749Z,29.53
2019-05-17T03:00:54.166Z,25.00
2019-05-17T03:03:23.937Z,22.20
2019-05-17T03:05:53.856Z,21.77
2019-05-17T03:08:23.823Z,22.25
2019-05-17T03:10:53.774Z,23.55
2019-05-17T03:13:23.621Z,21.40
2019-05-17T03:15:53.230Z,20.02
2019-05-17T03:18:23.195Z,21.53
2019-05-17T03:20:53.808Z,19.10
2019-05-17T03:23:23.674Z,21.05
2019-05-17T03:25:55.591Z,19.92
2019-05-17T03:28:25.121Z,19.00
2019-05-17T03:30:56.849Z,18.48
2019-05-17T03:33:27.671Z,17.32
2019-05-17T03:35:57.772Z,17.57
2019-05-17T03:38:27.235Z,19.40
2019-05-17T03:41:11.906Z,17.73
2019-05-17T03:43:28.016Z,17.73
2019-05-17T03:45:57.720Z,16.75
2019-05-17T03:48:27.201Z,16.75
2019-05-17T03:50:56.731Z,16.37
2019-05-17T03:53:26.332Z,18.17
2019-05-17T03:55:55.913Z,17.37
2019-05-17T03:58:25.414Z,20.13
2019-05-17T04:00:54.952Z,18.07
2019-05-17T04:03:25.527Z,17.85
2019-05-17T04:05:55.076Z,15.98
2019-05-17T04:08:24.539Z,14.23
2019-05-17T04:10:53.936Z,16.20
2019-05-17T04:13:23.806Z,14.45
2019-05-17T04:15:53.393Z,13.50
2019-05-17T04:18:23.612Z,12.40
2019-05-17T04:20:53.278Z,14.70
2019-05-17T04:23:24.487Z,12.68
2019-05-17T04:25:53.883Z,12.70
2019-05-17T04:28:23.429Z,14.37
2019-05-17T04:30:53.020Z,14.13
2019-05-17T04:33:23.490Z,11.48
2019-05-17T04:35:54.166Z,12.37
2019-05-17T04:38:24.156Z,18.37
2019-05-17T04:40:54.157Z,13.18
2019-05-17T04:43:23.729Z,12.33
2019-05-17T04:45:53.870Z,13.35
2019-05-17T04:48:23.635Z,16.60
2019-05-17T04:50:53.773Z,12.18
2019-05-17T04:53:23.747Z,14.93
2019-05-17T04:55:54.125Z,12.00
2019-05-17T04:58:23.967Z,14.10
2019-05-17T05:00:54.045Z,15.55
2019-05-17T05:03:23.734Z,12.82
2019-05-17T05:05:53.770Z,13.53
2019-05-17T05:08:23.377Z,12.90
2019-05-17T05:10:53.749Z,16.03
2019-05-17T05:13:23.310Z,14.75
2019-05-17T05:15:52.906Z,16.62
2019-05-17T05:18:22.400Z,14.50
2019-05-17T05:20:52.741Z,14.00
2019-05-17T05:23:23.767Z,16.48
2019-05-17T05:25:53.617Z,15.40
2019-05-17T05:28:23.007Z,14.55
2019-05-17T05:30:52.869Z,12.58
2019-05-17T05:33:22.570Z,13.58
2019-05-17T05:35:52.068Z,13.13
2019-05-17T05:38:21.772Z,15.15
2019-05-17T05:40:52.182Z,12.33
2019-05-17T05:43:22.579Z,13.53
2019-05-17T05:45:53.670Z,13.18
2019-05-17T05:48:23.322Z,14.95
2019-05-17T05:50:52.806Z,12.60
2019-05-17T05:53:22.206Z,14.95
2019-05-17T05:55:51.929Z,16.07
2019-05-17T05:58:24.012Z,12.05
2019-05-17T06:00:53.277Z,12.00
2019-05-17T06:03:22.879Z,14.10
2019-05-17T06:05:53.355Z,15.60
2019-05-17T06:08:23.043Z,15.03
2019-05-17T06:10:53.202Z,16.65
2019-05-17T06:13:22.922Z,12.60
2019-05-17T06:15:52.408Z,12.78
2019-05-17T06:18:22.680Z,12.57
2019-05-17T06:20:52.592Z,15.25
2019-05-17T06:23:23.451Z,14.95
2019-05-17T06:25:53.315Z,15.37
2019-05-17T06:28:22.845Z,13.18
2019-05-17T06:30:52.375Z,15.30
2019-05-17T06:33:30.638Z,15.68
2019-05-17T06:35:53.127Z,15.18
2019-05-17T06:38:22.628Z,13.48
2019-05-17T06:40:52.465Z,15.03
2019-05-17T06:43:22.043Z,13.03
2019-05-17T06:45:52.568Z,12.47
2019-05-17T06:48:22.657Z,12.98
2019-05-17T06:50:52.266Z,13.25
2019-05-17T06:53:22.083Z,16.42
2019-05-17T06:55:53.460Z,12.13
2019-05-17T06:58:23.068Z,11.63
2019-05-17T07:00:52.646Z,15.90
2019-05-17T07:03:22.171Z,12.23
2019-05-17T07:05:53.248Z,12.43
2019-05-17T07:08:22.718Z,13.93
2019-05-17T07:10:52.205Z,21.33
2019-05-17T07:13:21.601Z,16.70
2019-05-17T07:15:51.131Z,11.90
2019-05-17T07:18:20.632Z,11.48
2019-05-17T07:20:50.359Z,12.98
2019-05-17T07:23:20.242Z,11.73
2019-05-17T07:25:50.343Z,13.20
2019-05-17T07:28:20.220Z,18.50
2019-05-17T07:30:50.396Z,12.30
2019-05-17T07:33:21.079Z,12.43
2019-05-17T07:35:50.677Z,14.28
2019-05-17T07:38:20.134Z,13.38
2019-05-17T07:40:50.206Z,13.45
2019-05-17T07:43:20.792Z,14.13
2019-05-17T07:45:50.614Z,13.85
2019-05-17T07:48:20.185Z,11.93
2019-05-17T07:50:50.350Z,12.35
2019-05-17T07:53:21.183Z,12.98
2019-05-17T07:55:50.748Z,13.00
2019-05-17T07:58:21.666Z,12.13
2019-05-17T08:00:52.068Z,10.98
2019-05-17T08:03:24.715Z,10.40
2019-05-17T08:05:52.827Z,10.32
2019-05-17T08:08:22.317Z,12.90
2019-05-17T08:10:51.899Z,10.72
2019-05-17T08:13:29.983Z,13.20
2019-05-17T08:15:52.492Z,9.75
2019-05-17T08:18:21.879Z,11.90
2019-05-17T08:20:51.398Z,9.43
2019-05-17T08:23:20.935Z,12.13
2019-05-17T08:25:55.604Z,10.30
2019-05-17T08:28:21.742Z,8.23
2019-05-17T08:30:52.402Z,7.87
2019-05-17T08:33:21.970Z,9.25
2019-05-17T08:35:51.507Z,7.42
2019-05-17T08:38:20.984Z,8.68
2019-05-17T08:40:51.123Z,8.78
2019-05-17T08:43:21.469Z,8.45
2019-05-17T08:45:51.142Z,8.63
2019-05-17T08:48:20.760Z,7.85
2019-05-17T08:50:50.343Z,8.68
2019-05-17T08:53:20.048Z,8.58
2019-05-17T08:55:50.237Z,9.15
2019-05-17T08:58:21.567Z,12.53
2019-05-17T09:00:51.052Z,8.88
2019-05-17T09:03:20.427Z,10.88
2019-05-17T09:05:52.683Z,14.05
2019-05-17T09:08:20.929Z,10.32
2019-05-17T09:10:50.718Z,14.58
2019-05-17T09:13:20.268Z,11.43
2019-05-17T09:15:49.700Z,12.95
2019-05-17T09:18:20.619Z,11.28
2019-05-17T09:20:50.489Z,11.75
2019-05-17T09:23:20.012Z,12.80
2019-05-17T09:25:50.061Z,14.78
2019-05-17T09:28:20.720Z,12.05
2019-05-17T09:30:50.711Z,11.70
2019-05-17T09:33:20.519Z,15.08
2019-05-17T09:35:50.257Z,14.10
2019-05-17T09:38:20.462Z,11.50
2019-05-17T09:40:50.629Z,14.65
2019-05-17T09:43:21.447Z,14.63
2019-05-17T09:45:51.115Z,11.25
2019-05-17T09:48:20.668Z,10.18
2019-05-17T09:50:50.607Z,13.65
2019-05-17T09:53:20.475Z,11.97
2019-05-17T09:55:50.029Z,13.00
2019-05-17T09:58:21.605Z,9.68
2019-05-17T10:00:50.743Z,11.57
2019-05-17T10:03:23.787Z,11.60
2019-05-17T10:05:52.515Z,11.18
2019-05-17T10:08:22.093Z,9.78
2019-05-17T10:11:04.764Z,9.30
2019-05-17T10:13:22.655Z,7.70
2019-05-17T10:15:52.148Z,9.75
2019-05-17T10:18:21.722Z,14.50
2019-05-17T10:20:51.280Z,11.18
2019-05-17T10:23:20.826Z,10.48
2019-05-17T10:25:50.379Z,13.90
2019-05-17T10:28:20.490Z,10.38
2019-05-17T10:30:52.203Z,9.23
2019-05-17T10:33:22.017Z,11.28
2019-05-17T10:35:51.608Z,10.00
2019-05-17T10:38:21.154Z,8.80
2019-05-17T10:40:50.730Z,9.30
2019-05-17T10:43:21.276Z,10.53
2019-05-17T10:45:50.806Z,10.00
2019-05-17T10:48:21.249Z,10.38
2019-05-17T10:50:51.005Z,9.50
2019-05-17T10:53:20.599Z,10.00
2019-05-17T10:55:50.170Z,9.83
2019-05-17T10:58:21.268Z,11.50
2019-05-17T11:00:51.452Z,10.23
2019-05-17T11:03:21.011Z,10.48
2019-05-17T11:05:50.590Z,11.12
2019-05-17T11:08:20.269Z,12.93
2019-05-17T11:10:50.304Z,9.75
2019-05-17T11:13:24.085Z,10.95
2019-05-17T11:15:55.179Z,14.13
2019-05-17T11:18:24.879Z,12.60
2019-05-17T11:20:54.414Z,10.63
2019-05-17T11:23:23.779Z,10.82
2019-05-17T11:25:54.758Z,14.10
2019-05-17T11:28:24.194Z,26.80
2019-05-17T11:30:53.629Z,19.10
2019-05-17T11:33:23.113Z,12.23
2019-05-17T11:35:53.216Z,13.35
2019-05-17T11:38:23.669Z,17.15
2019-05-17T11:40:53.068Z,10.68
2019-05-17T11:43:23.875Z,11.28
2019-05-17T11:45:54.695Z,10.65
2019-05-17T11:48:24.060Z,10.00
2019-05-17T11:50:55.256Z,11.12
2019-05-17T11:53:24.767Z,9.78
2019-05-17T11:55:54.120Z,10.48
2019-05-17T11:58:23.480Z,15.23
2019-05-17T12:00:52.875Z,42.03
2019-05-17T12:03:22.356Z,10.20
2019-05-17T12:05:52.808Z,10.65
2019-05-17T12:08:22.214Z,18.00
2019-05-17T12:10:51.652Z,16.35
2019-05-17T12:13:21.255Z,12.35
2019-05-17T12:15:52.084Z,11.75
2019-05-17T12:18:21.513Z,12.35
2019-05-17T12:20:50.882Z,15.18
2019-05-17T12:23:20.228Z,16.10
2019-05-17T12:25:49.657Z,28.90
2019-05-17T12:28:19.225Z,15.95
2019-05-17T12:30:48.918Z,22.13
2019-05-17T12:33:18.461Z,14.03
2019-05-17T12:35:47.905Z,16.63
2019-05-17T12:38:17.351Z,19.48
2019-05-17T12:40:47.009Z,15.93
2019-05-17T12:43:16.475Z,11.68
2019-05-17T12:45:59.351Z,14.60
2019-05-17T12:48:18.192Z,22.93
2019-05-17T12:50:47.837Z,11.20
2019-05-17T12:53:32.918Z,12.37
2019-05-17T12:56:02.627Z,12.35
2019-05-17T12:58:32.344Z,17.15
2019-05-17T13:01:01.831Z,13.93
2019-05-17T13:03:31.360Z,15.03
2019-05-17T13:06:00.949Z,11.35
2019-05-17T13:08:30.562Z,14.80
2019-05-17T13:11:00.061Z,11.65
2019-05-17T13:13:29.585Z,13.93
2019-05-17T13:15:59.200Z,29.25
2019-05-17T13:18:28.613Z,12.58
2019-05-17T13:20:58.287Z,13.40
2019-05-17T13:23:27.880Z,13.90
2019-05-17T13:25:57.487Z,13.68
2019-05-17T13:28:27.038Z,10.05
2019-05-17T13:30:56.657Z,11.45
2019-05-17T13:33:29.092Z,13.38
2019-05-17T13:35:57.440Z,12.20
2019-05-17T13:38:26.978Z,12.15
2019-05-17T13:40:56.575Z,25.82
2019-05-17T13:43:26.297Z,11.75
2019-05-17T13:45:55.795Z,13.05
2019-05-17T13:48:25.296Z,13.68
2019-05-17T13:50:55.109Z,10.75
2019-05-17T13:53:24.891Z,13.20
2019-05-17T13:55:54.538Z,13.53
2019-05-17T13:58:24.125Z,9.80
2019-05-17T14:00:53.734Z,9.05
2019-05-17T14:03:23.370Z,14.15
2019-05-17T14:05:52.833Z,9.98
2019-05-17T14:08:22.460Z,7.15
2019-05-17T14:10:51.956Z,9.75
2019-05-17T14:13:21.454Z,10.13
2019-05-17T14:15:51.052Z,11.85
2019-05-17T14:18:20.607Z,7.80
2019-05-17T14:20:52.652Z,9.80
2019-05-17T14:23:23.257Z,9.88
2019-05-17T14:25:52.657Z,13.80
2019-05-17T14:28:22.090Z,10.90
2019-05-17T14:30:51.572Z,9.93
2019-05-17T14:33:20.983Z,13.45
2019-05-17T14:35:50.593Z,11.60
2019-05-17T14:38:20.085Z,24.27
2019-05-17T14:41:07.709Z,86.92
2019-05-17T14:43:20.608Z,12.30
2019-05-17T14:45:50.030Z,15.90
2019-05-17T14:48:19.534Z,18.90
2019-05-17T14:50:49.430Z,7.33
2019-05-17T14:53:19.057Z,8.50
2019-05-17T14:55:48.799Z,10.28
2019-05-17T14:58:18.538Z,7.62
2019-05-17T15:00:47.959Z,7.50
2019-05-17T15:03:17.446Z,7.15
2019-05-17T15:05:46.891Z,7.35
2019-05-17T15:08:16.389Z,8.85
2019-05-17T15:10:45.792Z,7.90
2019-05-17T15:13:15.277Z,7.42
2019-05-17T15:15:44.801Z,7.03
2019-05-17T15:18:14.312Z,8.18
2019-05-17T15:20:43.730Z,5.33
2019-05-17T15:23:13.161Z,8.58
2019-05-17T15:25:42.561Z,6.10
2019-05-17T15:28:11.929Z,10.25
2019-05-17T15:30:41.363Z,7.90
2019-05-17T15:33:10.732Z,8.13
2019-05-17T15:35:40.226Z,7.08
2019-05-17T15:38:11.138Z,7.80
2019-05-17T15:40:42.895Z,9.63
2019-05-17T15:43:12.405Z,7.50
2019-05-17T15:45:44.070Z,5.92
2019-05-17T15:48:14.723Z,8.15
2019-05-17T15:50:44.235Z,7.83
2019-05-17T15:53:13.750Z,7.03
2019-05-17T15:55:43.465Z,7.17
2019-05-17T15:58:13.244Z,6.87
2019-05-17T16:00:42.867Z,6.70
2019-05-17T16:03:12.570Z,7.30
2019-05-17T16:05:42.150Z,6.05
2019-05-17T16:08:11.786Z,7.58
2019-05-17T16:10:41.274Z,8.00
2019-05-17T16:13:10.896Z,5.60
2019-05-17T16:15:40.385Z,5.35
2019-05-17T16:18:09.902Z,8.18
2019-05-17T16:20:39.484Z,8.68
2019-05-17T16:23:09.105Z,8.58
2019-05-17T16:25:38.916Z,7.83
2019-05-17T16:28:08.540Z,7.20
2019-05-17T16:30:38.144Z,8.25
2019-05-17T16:33:07.653Z,9.33
2019-05-17T16:35:37.157Z,7.97
2019-05-17T16:38:06.865Z,9.05
2019-05-17T16:40:37.688Z,6.53
2019-05-17T16:43:17.564Z,17.40
2019-05-17T16:45:38.554Z,78.37
2019-05-17T16:48:08.265Z,12.95
2019-05-17T16:50:37.751Z,29.12
2019-05-17T16:53:07.305Z,26.10
2019-05-17T16:55:36.973Z,52.55
2019-05-17T16:58:06.478Z,126.72
2019-05-17T17:00:38.717Z,13.32
2019-05-17T17:03:08.353Z,16.70
2019-05-17T17:05:38.199Z,16.55
2019-05-17T17:08:07.885Z,17.30
2019-05-17T17:10:37.505Z,11.75
2019-05-17T17:13:07.133Z,13.25
2019-05-17T17:15:36.747Z,11.65
2019-05-17T17:18:06.272Z,8.28
2019-05-17T17:20:35.797Z,9.40
2019-05-17T17:23:05.388Z,15.58
2019-05-17T17:25:34.914Z,12.20
2019-05-17T17:28:06.130Z,9.68
2019-05-17T17:30:36.832Z,9.30
2019-05-17T17:33:06.332Z,9.15
2019-05-17T17:35:35.789Z,11.93
2019-05-17T17:38:18.191Z,8.73
2019-05-17T17:40:47.575Z,11.55
2019-05-17T17:43:17.110Z,11.80
2019-05-17T17:45:46.625Z,17.42
2019-05-17T17:48:15.986Z,15.43
2019-05-17T17:50:45.522Z,12.73
2019-05-17T17:53:14.932Z,16.60
2019-05-17T17:55:44.429Z,15.18
2019-05-17T17:58:13.895Z,10.58
2019-05-17T18:00:43.447Z,10.50
2019-05-17T18:03:13.048Z,14.87
2019-05-17T18:05:42.523Z,20.65
2019-05-17T18:08:11.907Z,20.75
2019-05-17T18:10:41.403Z,31.20
2019-05-17T18:13:10.880Z,18.05
2019-05-17T18:15:43.435Z,16.67
2019-05-17T18:18:14.788Z,9.90
2019-05-17T18:20:44.370Z,15.28
2019-05-17T18:23:13.994Z,15.18
2019-05-17T18:25:43.607Z,17.97
2019-05-17T18:28:13.244Z,23.45
2019-05-17T18:30:42.852Z,25.57
2019-05-17T18:33:12.398Z,12.95
2019-05-17T18:35:42.553Z,16.40
2019-05-17T18:38:12.353Z,21.77
2019-05-17T18:40:41.760Z,14.28
2019-05-17T18:43:11.261Z,14.53
2019-05-17T18:45:40.844Z,18.60
2019-05-17T18:48:10.600Z,10.13
2019-05-17T18:50:40.194Z,12.05
2019-05-17T18:53:16.469Z,12.43
2019-05-17T18:55:40.850Z,11.38
2019-05-17T18:58:10.378Z,15.50
2019-05-17T19:00:39.784Z,20.02
2019-05-17T19:03:10.427Z,10.40
2019-05-17T19:05:39.913Z,14.15
2019-05-17T19:08:09.499Z,16.25
2019-05-17T19:10:40.028Z,15.90
2019-05-17T19:13:09.602Z,8.98
2019-05-17T19:15:39.139Z,14.25
2019-05-17T19:18:08.675Z,15.08
2019-05-17T19:20:38.202Z,17.52
2019-05-17T19:23:07.679Z,12.85
2019-05-17T19:25:37.215Z,15.03
2019-05-17T19:28:06.674Z,18.90
2019-05-17T19:30:36.079Z,11.90
2019-05-17T19:33:05.542Z,9.48
2019-05-17T19:35:35.122Z,8.65
2019-05-17T19:38:04.670Z,24.12
2019-05-17T19:40:34.192Z,102.42
2019-05-17T19:43:03.742Z,32.95
2019-05-17T19:45:33.398Z,7.85
2019-05-17T19:48:02.956Z,8.08
2019-05-17T19:50:32.494Z,13.30
2019-05-17T19:53:02.199Z,87.88
2019-05-17T19:55:33.415Z,114.90
2019-05-17T19:58:03.272Z,462.27
2019-05-17T20:00:32.763Z,495.13
2019-05-17T20:03:02.389Z,18.45
2019-05-17T20:05:31.992Z,10.70
2019-05-17T20:08:01.546Z,7.15
2019-05-17T20:10:31.116Z,12.47
2019-05-17T20:13:01.937Z,25.07
2019-05-17T20:15:34.452Z,110.00
2019-05-17T20:18:02.709Z,46.00
2019-05-17T20:20:33.018Z,14.53
2019-05-17T20:23:02.580Z,22.53
2019-05-17T20:25:32.109Z,30.00
2019-05-17T20:28:03.024Z,23.35
2019-05-17T20:30:32.586Z,19.53
2019-05-17T20:33:02.064Z,17.70
2019-05-17T20:35:31.767Z,20.02
2019-05-17T20:38:01.396Z,12.90
2019-05-17T20:40:30.942Z,18.48
2019-05-17T20:43:00.603Z,12.58
2019-05-17T20:45:33.393Z,16.62
2019-05-17T20:48:01.374Z,21.48
2019-05-17T20:50:30.940Z,20.60
2019-05-17T20:53:01.417Z,27.35
2019-05-17T20:55:30.999Z,35.05
2019-05-17T20:58:00.596Z,36.47
2019-05-17T21:00:30.279Z,30.43
2019-05-17T21:02:59.894Z,66.00
2019-05-17T21:05:29.518Z,31.93
2019-05-17T21:07:59.069Z,26.27
2019-05-17T21:10:28.538Z,27.05
2019-05-17T21:12:58.346Z,18.80
2019-05-17T21:15:27.920Z,19.73
2019-05-17T21:17:57.379Z,12.07
2019-05-17T21:20:27.038Z,19.37
2019-05-17T21:22:56.593Z,27.47
2019-05-17T21:25:26.117Z,16.75
2019-05-17T21:27:55.641Z,30.72
2019-05-17T21:30:25.271Z,16.67
2019-05-17T21:32:54.931Z,23.67
2019-05-17T21:35:24.565Z,30.40
2019-05-17T21:37:55.205Z,26.73
2019-05-17T21:40:24.722Z,28.13
2019-05-17T21:42:54.345Z,16.77
2019-05-17T21:45:24.050Z,54.90
2019-05-17T21:47:54.875Z,38.40
2019-05-17T21:50:24.303Z,20.03
2019-05-17T21:52:53.840Z,19.30
2019-05-17T21:55:23.526Z,58.93
2019-05-17T21:57:53.111Z,48.00
2019-05-17T22:00:27.426Z,24.27
2019-05-17T22:02:58.565Z,23.70
2019-05-17T22:05:28.053Z,18.97
2019-05-17T22:07:57.496Z,21.97
2019-05-17T22:10:27.082Z,26.90
2019-05-17T22:12:56.681Z,17.57
2019-05-17T22:15:26.298Z,16.10
2019-05-17T22:17:55.690Z,22.90
2019-05-17T22:20:25.210Z,15.83
2019-05-17T22:22:54.917Z,45.57
2019-05-17T22:25:24.477Z,26.30
2019-05-17T22:27:54.121Z,23.63
2019-05-17T22:30:23.632Z,14.10
2019-05-17T22:32:53.083Z,20.33
2019-05-17T22:35:22.647Z,21.13
2019-05-17T22:37:52.231Z,20.17
2019-05-17T22:40:21.854Z,34.73
2019-05-17T22:42:51.374Z,25.20
2019-05-17T22:45:21.069Z,30.57
2019-05-17T22:47:50.818Z,26.70
2019-05-17T22:50:20.502Z,22.70
2019-05-17T22:52:49.975Z,20.57
2019-05-17T22:55:19.526Z,21.43
2019-05-17T22:57:48.993Z,31.93
2019-05-17T23:00:18.623Z,21.97
2019-05-17T23:02:48.153Z,37.90
2019-05-17T23:05:25.567Z,25.20
2019-05-17T23:07:48.681Z,29.97
2019-05-17T23:10:18.265Z,411.33
2019-05-17T23:12:47.864Z,220.57
2019-05-17T23:15:17.604Z,54.30
2019-05-17T23:17:47.234Z,42.30
2019-05-17T23:20:17.010Z,36.27
2019-05-17T23:22:46.589Z,22.57
2019-05-17T23:25:16.310Z,17.10
2019-05-17T23:27:45.818Z,17.50
2019-05-17T23:30:15.591Z,21.07
2019-05-17T23:32:45.137Z,22.47
2019-05-17T23:35:14.744Z,20.03
2019-05-17T23:37:44.232Z,21.73
2019-05-17T23:40:14.167Z,25.67
2019-05-17T23:42:43.660Z,110.13
2019-05-17T23:45:13.377Z,34.30
2019-05-17T23:47:42.935Z,59.50
2019-05-17T23:50:12.805Z,103.17
2019-05-17T23:52:42.418Z,39.90
2019-05-17T23:55:12.114Z,680.97
2019-05-17T23:57:41.718Z,1047.77
